This is the latest recevied weather packets stored in our database for station/object K4BHH. If no packets are shown the sender has not sent any weather packets the latest 10 day(s).
| Time | Temp. | Humidity | Pressure | Rain* | Wind** | Luminosity | Snow |
|---|---|---|---|---|---|---|---|
| 1778033940 | 21.11° C | 64% | 1010.2 hPa | 0 mm | - | - | - |
| 1778033308 | 21.11° C | 64% | 1009.8 hPa | 0 mm | - | - | - |
| 1778032707 | 21.67° C | 63% | 1009.8 hPa | 0 mm | - | - | - |
| 1778032106 | 21.67° C | 63% | 1010.2 hPa | 0 mm | - | - | - |
| 1778024137 | 22.22° C | 57% | 1010.2 hPa | 0 mm | - | - | - |
| 1778022935 | 22.22° C | 57% | 1010.5 hPa | 0 mm | - | - | - |
| 1778022334 | 22.22° C | 56% | 1010.5 hPa | 0 mm | - | - | - |
| 1778013764 | 22.22° C | 54% | 1010.5 hPa | 0 mm | - | - | - |
| 1778012532 | 21.67° C | 57% | 1010.5 hPa | 0 mm | - | - | - |
| 1778011330 | 22.22° C | 50% | 1011.9 hPa | 0 mm | - | - | - |
| 1778004532 | 24.44° C | 41% | 1013.2 hPa | 0 mm | - | - | - |
| 1778003932 | 24.44° C | 41% | 1012.9 hPa | 0 mm | - | - | - |
| 1778001529 | 23.89° C | 42% | 1013.5 hPa | 0 mm | - | - | - |
| 1777997290 | 22.78° C | 47% | 1013.5 hPa | 0 mm | - | - | - |
| 1777994854 | 21.67° C | 56% | 1013.9 hPa | 0 mm | - | - | - |
| 1777993652 | 21.11° C | 59% | 1013.9 hPa | 0 mm | - | - | - |
| 1777984005 | 16.11° C | 73% | 1013.9 hPa | 0 mm | - | - | - |
| 1777983404 | 15.56° C | 75% | 1013.9 hPa | 0 mm | - | - | - |
| 1777982202 | 14.44° C | 77% | 1013.5 hPa | 0 mm | - | - | - |
| 1777976160 | 14.44° C | 73% | 1012.2 hPa | 0 mm | - | - | - |
| 1777972555 | 15° C | 69% | 1011.9 hPa | 0 mm | - | - | - |
| 1777971353 | 15° C | 68% | 1011.9 hPa | 0 mm | - | - | - |
| 1777970151 | 15° C | 68% | 1012.2 hPa | 0 mm | - | - | - |
| 1777968317 | 13.89° C | 72% | 1012.2 hPa | 0 mm | - | - | - |
| 1777967716 | 13.89° C | 74% | 1012.2 hPa | 0 mm | - | - | - |
* Rain latest hour (hover to see other rain measurements)
** Current wind speed in m/s (hover to see current wind gust speed)